This is the latest recevied weather packets stored in our database for station/object DK6GC-10. If no packets are shown the sender has not sent any weather packets the latest 10 day(s).
| Time | Temp. | Humidity | Pressure | Rain* | Wind** | Luminosity | Snow |
|---|---|---|---|---|---|---|---|
| 1787598917 | 18.33° C | 65% | 1014.8 hPa | - | - | - | - |
| 1787598017 | 18.89° C | 67% | 1014.8 hPa | - | - | - | - |
| 1787597117 | 18.89° C | 60% | 1014.8 hPa | - | - | - | - |
| 1787596216 | 20° C | 59% | 1014.7 hPa | - | - | - | - |
| 1787595316 | 20° C | 56% | 1014.9 hPa | - | - | - | - |
| 1787594422 | 20.56° C | 55% | 1015.2 hPa | - | - | - | - |
| 1787593522 | 20.56° C | 56% | 1015.3 hPa | - | - | - | - |
| 1787592621 | 20.56° C | 54% | 1015.2 hPa | - | - | - | - |
| 1787591721 | 21.11° C | 55% | 1015.2 hPa | - | - | - | - |
| 1787590821 | 21.11° C | 56% | 1015.4 hPa | - | - | - | - |
| 1787589921 | 20.56° C | 59% | 1015.6 hPa | - | - | - | - |
| 1787589021 | 21.11° C | 56% | 1015.9 hPa | - | - | - | - |
| 1787588121 | 21.11° C | 54% | 1016 hPa | - | - | - | - |
| 1787587220 | 21.11° C | 53% | 1016.1 hPa | - | - | - | - |
| 1787586320 | 21.11° C | 57% | 1016.1 hPa | - | - | - | - |
| 1787585420 | 21.11° C | 55% | 1016.4 hPa | - | - | - | - |
| 1787584520 | 21.11° C | 63% | 1016.7 hPa | - | - | - | - |
| 1787583620 | 21.11° C | 64% | 1017.1 hPa | - | - | - | - |
| 1787582719 | 21.67° C | 62% | 1017.2 hPa | - | - | - | - |
| 1787581819 | 23.33° C | 47% | 1017.8 hPa | - | - | - | - |
| 1787580919 | 23.89° C | 41% | 1017.6 hPa | - | - | - | - |
| 1787580019 | 25° C | 39% | 1017.3 hPa | - | - | - | - |
| 1787579119 | 26.11° C | 38% | 1017.4 hPa | - | - | - | - |
| 1787578219 | 26.11° C | 37% | 1017.3 hPa | - | - | - | - |
| 1787577318 | 26.11° C | 39% | 1017.4 hPa | - | - | - | - |
* Rain since midnight (hover to see other rain measurements)
** Current wind speed in m/s (hover to see current wind gust speed)